Pagina principală
METAR-TAF:

METAR-TAF

Aeroporturi :

Aurora Municipal Airport (Al Potter Field)

Aurora, Nebraska, Statele Unite ale Americii

Latitudine: 40-53-38N, longitudine: 097-59-40W, elevație: 550 m

Observații meteo curente

Raportul a fost făcut în urmă cu 33 de minute, la 12:55 UTC
Vânt 4 kt de la Sud
Temperatură 19°C
Umiditate 100%
Presiune 1014 hPa
Vizibilitate: 16.1 km
Total acoperit la o înălțime de 2000 picior

METAR: KAUH 151255Z AUTO 18004KT 10SM OVC020 19/19 A2994 RMK AO2 T01920185

Ora: 08:28 (13:28 UTC)


TAF: lipsă

Observații și prognoze meteo pentru peste 4.000 de aeroporturi (rapoarte METAR și TAF).

Stațiile disponibile sunt reprezentate pe hartă prin puncte galbene și roșii.

Țineți indicatorul mouse-ului pe punctul dorit pentru a vedea denumirea stației.

Apoi, faceți clic pentru a vedea observațiile și prognozele meteorologice.

Pentru a schimba harta: Pentru mărire, faceți clic pe butoanele verzi cu cruce neagră; pentru micșorare, pe butonul verde cu o liniuță; pentru hărți învecinate, pe săgețile verzi.


METAR-TAF: